KEKN

Elkins-Randolph Co-Jennings Randolph Field Airport

Elkins, West Virginia, USA
METAR KEKN 221351Z AUTO 00000KT 10SM CLR 02/M01 A3027 RMK AO2 SLP273 T00171006 TSNO
Observed Flight Rules
Oct-22 @ 13:51 UTC (30 minutes ago) Visual Flight Rules
Visibility Clouds
10 miles
  • Clear skies
Temperatures Readings
Current 2°C / 36°F
Dewpoint -1°C / 30°F
Humidity 81%
Altimeter 30.27" Hg
Pressure 1027.3 hPa
Elevation 603
METAR KEKN 221351Z AUTO 00000KT 10SM CLR 02/M01 A3027 RMK AO2 SLP273 T00171006 TSNO
Observed Flight Rules
Oct-22 @ 13:51 UTC
(30 minutes ago)
VFR
Clouds
  • Clear skies
Temperature Dewpoint
2°C / 36°F -1°C / 30°F
Humidity Altimeter Pressure
81% 30.27" Hg 1027.3 hPa